Time;durP1;ratioP1;P1;durP2;ratioP2;P2;SDS_P1;SDS_P2;PMS_P1;PMS_P2;Temp;Humidity;BMP_temperature;BMP_pressure;BME280_temperature;BME280_humidity;BME280_pressure;Samples;Min_cycle;Max_cycle;Signal;HPM_P1;HPM_P2
2022/01/21 00:01:28;;;;;;;37.50;19.77;;;;;;;-2.34;65.05;100076.44;5110893;28;20047;-21
2022/01/21 00:03:53;;;;;;;34.83;17.80;;;;;;;-2.33;66.14;100096.38;5111714;28;20102;-21
2022/01/21 00:06:19;;;;;;;41.97;21.50;;;;;;;-2.28;65.65;100062.00;5111479;28;20030;-20
2022/01/21 00:08:46;;;;;;;43.15;22.45;;;;;;;-1.56;63.41;100075.59;5111277;28;20506;-21
2022/01/21 00:11:12;;;;;;;89.63;39.90;;;;;;;-1.24;62.26;100078.69;5093117;28;20046;-21
2022/01/21 00:13:38;;;;;;;59.28;31.00;;;;;;;-1.17;61.52;100078.94;5092867;28;20030;-21
2022/01/21 00:16:07;;;;;;;62.75;29.58;;;;;;;-0.77;61.11;100087.50;5110931;28;20039;-28
2022/01/21 00:18:34;;;;;;;45.60;24.60;;;;;;;-0.52;60.24;100089.41;5092516;28;20032;-21
2022/01/21 00:31:57;;;;;;;73.03;34.53;;;;;;;-1.68;64.88;100075.75;5095187;28;20034;-23
2022/01/21 00:34:23;;;;;;;76.45;36.83;;;;;;;-1.18;64.18;100107.91;5110800;28;20027;-21
2022/01/21 00:36:48;;;;;;;72.90;35.10;;;;;;;-0.96;62.53;100080.53;5110656;28;20028;-21
2022/01/21 00:39:14;;;;;;;96.47;43.67;;;;;;;-1.24;64.06;100097.00;5110670;28;20554;-21
2022/01/21 00:41:55;;;;;;;70.80;34.75;;;;;;;-1.45;65.03;100097.19;5110714;28;20028;-21
2022/01/21 00:44:20;;;;;;;52.05;27.98;;;;;;;-1.66;66.56;100092.13;5110675;28;20023;-21
2022/01/21 00:46:46;;;;;;;66.20;34.58;;;;;;;-1.83;67.10;100083.19;5110475;28;20042;-22
2022/01/21 00:49:11;;;;;;;75.50;39.20;;;;;;;-1.63;66.63;100104.94;5109987;28;20031;-21
2022/01/21 00:51:37;;;;;;;235.70;106.90;;;;;;;-1.59;66.06;100094.16;5110223;28;20067;-21
2022/01/21 00:54:02;;;;;;;82.70;45.22;;;;;;;-1.05;64.29;100092.69;5092048;28;20061;-21
2022/01/21 00:56:28;;;;;;;56.63;29.98;;;;;;;-0.69;62.57;100095.44;5092150;28;20487;-21
2022/01/21 00:58:53;;;;;;;50.50;26.17;;;;;;;-0.89;61.91;100076.38;5110216;28;20045;-21
2022/01/21 01:01:19;;;;;;;48.22;26.27;;;;;;;-0.69;61.81;100082.34;5058066;28;20105;-21
2022/01/21 01:03:44;;;;;;;58.45;27.83;;;;;;;-0.59;61.31;100080.50;5109879;28;20082;-21
2022/01/21 01:06:09;;;;;;;49.28;25.83;;;;;;;-0.64;61.77;100074.88;5091785;28;20034;-21
2022/01/21 01:08:35;;;;;;;50.42;25.85;;;;;;;-0.85;62.03;100057.59;5110241;28;20027;-21
2022/01/21 01:11:17;;;;;;;52.03;27.15;;;;;;;-0.91;63.19;100049.53;5110069;28;20035;-21
2022/01/21 01:21:44;;;;;;;48.00;26.02;;;;;;;-0.49;62.78;100057.69;5110036;28;20042;-21
2022/01/21 01:29:20;;;;;;;48.55;25.92;;;;;;;-1.29;66.15;100022.53;5109662;28;20578;-20
2022/01/21 01:31:46;;;;;;;55.90;26.77;;;;;;;-0.99;65.92;100028.47;5074582;28;20110;-21
2022/01/21 01:34:12;;;;;;;50.35;26.65;;;;;;;-1.19;66.48;100032.97;5109539;28;20605;-21
2022/01/21 01:36:39;;;;;;;54.17;28.42;;;;;;;-0.92;65.00;100016.44;5109619;28;20066;-21
2022/01/21 01:39:17;;;;;;;49.95;26.65;;;;;;;-0.74;64.71;100021.72;5108948;28;20483;-21
2022/01/21 01:41:50;;;;;;;48.88;27.02;;;;;;;-0.63;64.41;100045.91;5109571;28;20027;-22
2022/01/21 01:49:43;;;;;;;44.83;25.77;;;;;;;-0.92;64.06;100040.00;5109005;28;20062;-21
2022/01/21 01:52:14;;;;;;;43.85;24.40;;;;;;;-0.67;64.19;100031.47;5091009;28;20479;-21
2022/01/21 01:55:01;;;;;;;49.42;25.17;;;;;;;-0.46;63.00;100019.91;5109181;28;20031;-21
2022/01/21 01:57:26;;;;;;;50.50;26.67;;;;;;;-0.29;62.18;100020.88;5109158;28;20028;-20
2022/01/21 01:59:52;;;;;;;50.80;24.55;;;;;;;-0.27;62.28;100021.53;5090516;28;20074;-21
2022/01/21 02:02:18;;;;;;;49.47;26.55;;;;;;;-0.71;64.47;100026.69;5108564;28;20047;-20
2022/01/21 02:04:45;;;;;;;49.15;26.52;;;;;;;-0.62;63.78;100015.31;5108798;28;20034;-21
2022/01/21 02:07:10;;;;;;;47.33;26.02;;;;;;;-0.96;64.63;100023.78;5108781;28;20031;-21
2022/01/21 02:09:36;;;;;;;45.20;24.95;;;;;;;-0.80;64.64;100002.19;5108826;28;20068;-21
2022/01/21 02:12:02;;;;;;;50.17;25.67;;;;;;;-0.79;64.48;99982.06;5108943;28;20058;-21
2022/01/21 02:14:37;;;;;;;46.67;24.33;;;;;;;-0.56;64.48;100011.28;5108680;28;20035;-21
2022/01/21 02:22:17;;;;;;;43.38;22.90;;;;;;;-0.74;66.13;100029.56;5108029;28;20043;-21
2022/01/21 02:24:49;;;;;;;41.85;22.92;;;;;;;-0.91;66.53;100031.19;5108371;28;20051;-21
2022/01/21 02:27:14;;;;;;;46.90;22.38;;;;;;;-1.35;67.49;100046.63;5090973;28;20059;-21
2022/01/21 02:29:49;;;;;;;47.38;23.92;;;;;;;-1.45;67.69;100033.56;5108265;28;20464;-21
2022/01/21 02:32:15;;;;;;;43.17;22.73;;;;;;;-0.90;66.58;100049.38;5091682;28;20096;-21
2022/01/21 02:34:41;;;;;;;37.10;20.67;;;;;;;-1.14;66.64;100056.91;5090206;28;20031;-21
2022/01/21 02:37:06;;;;;;;38.28;20.42;;;;;;;-1.34;67.53;100074.47;5108058;28;20039;-22
2022/01/21 02:39:32;;;;;;;35.97;18.80;;;;;;;-1.35;68.45;100081.47;5108024;28;20107;-21
2022/01/21 02:41:57;;;;;;;40.47;21.48;;;;;;;-1.06;68.23;100076.16;5107850;28;20035;-21
2022/01/21 02:44:24;;;;;;;35.75;18.60;;;;;;;-0.85;66.94;100070.69;5108366;28;20030;-21
2022/01/21 02:46:55;;;;;;;37.00;17.77;;;;;;;-1.16;68.61;100079.78;5089852;28;20543;-21
2022/01/21 02:49:21;;;;;;;38.45;18.33;;;;;;;-1.44;69.52;100082.31;5090703;28;20059;-21
2022/01/21 02:51:46;;;;;;;33.10;18.80;;;;;;;-1.19;69.32;100083.50;5089701;28;20114;-20
2022/01/21 02:54:12;;;;;;;38.78;18.63;;;;;;;-0.93;66.46;100085.50;5107873;28;20035;-21
2022/01/21 02:56:38;;;;;;;36.58;18.42;;;;;;;-1.01;67.38;100086.19;5089790;28;20032;-21
2022/01/21 02:59:05;;;;;;;36.83;19.30;;;;;;;-1.06;67.24;100086.63;5089602;28;20024;-22
2022/01/21 03:01:33;;;;;;;35.45;18.92;;;;;;;-0.89;66.28;100045.78;5089655;28;20093;-21
2022/01/21 03:03:58;;;;;;;39.22;19.38;;;;;;;-0.75;65.83;100051.50;5108041;28;20475;-21
2022/01/21 03:06:24;;;;;;;36.88;19.30;;;;;;;-0.51;66.22;100101.56;5107994;28;20051;-21
2022/01/21 03:08:53;;;;;;;43.05;19.63;;;;;;;-0.39;65.31;100096.09;5107705;28;20023;-21
2022/01/21 03:11:20;;;;;;;37.05;19.30;;;;;;;-0.42;65.70;100100.66;5089509;28;20546;-23
2022/01/21 07:24:11;;;;;;;72.75;34.85;;;;;;;-0.13;85.75;100305.94;4995095;27;8299790;-21
2022/01/21 07:26:37;;;;;;;67.90;34.45;;;;;;;0.10;84.45;100309.84;5124480;28;20835;-21
2022/01/21 07:29:02;;;;;;;66.45;35.65;;;;;;;0.67;81.05;100307.03;5124707;27;20060;-21
2022/01/21 07:31:28;;;;;;;77.65;40.30;;;;;;;0.70;80.77;100324.28;5123806;28;20119;-22
2022/01/21 07:33:54;;;;;;;78.10;38.38;;;;;;;0.58;80.88;100318.41;5124440;27;20031;-22
2022/01/21 07:36:19;;;;;;;101.53;53.45;;;;;;;0.58;80.40;100323.66;5124944;27;20030;-22
2022/01/21 07:38:45;;;;;;;84.35;43.08;;;;;;;1.09;79.21;100337.97;5124847;27;20038;-22
2022/01/21 07:41:10;;;;;;;95.57;43.95;;;;;;;1.19;78.71;100335.25;5124818;27;20028;-21
2022/01/21 07:43:36;;;;;;;96.07;42.20;;;;;;;0.94;79.03;100342.06;5123165;27;20035;-21
2022/01/21 07:46:01;;;;;;;70.53;38.33;;;;;;;0.99;79.21;100345.91;5091479;28;20033;-22
2022/01/21 07:48:27;;;;;;;72.68;37.03;;;;;;;1.22;79.01;100352.50;5083365;28;20084;-21
2022/01/21 07:50:52;;;;;;;70.78;34.95;;;;;;;1.12;77.42;100355.22;5083759;28;20475;-21
2022/01/21 07:53:18;;;;;;;72.72;38.88;;;;;;;0.90;79.37;100367.81;5086772;28;20044;-22
2022/01/21 07:55:44;;;;;;;55.95;31.30;;;;;;;0.55;81.03;100355.44;5083937;28;20692;-22
2022/01/21 07:58:11;;;;;;;59.75;32.90;;;;;;;0.60;80.34;100337.47;5083729;28;20119;-21
2022/01/21 08:00:36;;;;;;;75.15;37.47;;;;;;;0.77;80.18;100373.41;5084181;28;20059;-21
2022/01/21 08:03:02;;;;;;;85.70;45.67;;;;;;;0.71;82.47;100371.38;5084106;28;20059;-21
2022/01/21 08:05:31;;;;;;;75.03;41.53;;;;;;;0.73;82.08;100374.69;5083626;28;20024;-20
2022/01/21 08:07:56;;;;;;;80.05;44.30;;;;;;;0.90;81.06;100380.09;5083712;28;20032;-21
2022/01/21 08:10:22;;;;;;;88.65;45.47;;;;;;;0.78;81.69;100379.50;5083488;28;20024;-23
2022/01/21 08:12:47;;;;;;;98.97;53.22;;;;;;;0.87;82.47;100385.66;5083363;28;20036;-21
2022/01/21 08:15:13;;;;;;;130.52;77.47;;;;;;;1.23;81.49;100393.56;5083568;28;20036;-21
2022/01/21 08:17:38;;;;;;;128.57;70.43;;;;;;;1.26;81.60;100393.28;5083447;28;20032;-21
2022/01/21 08:20:04;;;;;;;222.63;117.45;;;;;;;1.73;79.39;100393.00;5083326;28;20028;-21
2022/01/21 08:22:29;;;;;;;205.73;104.18;;;;;;;1.62;79.58;100407.22;5074157;28;20159;-21
2022/01/21 08:24:55;;;;;;;261.42;131.93;;;;;;;1.56;80.71;100395.50;5071762;28;20064;-21
2022/01/21 08:27:21;;;;;;;207.85;99.55;;;;;;;1.69;78.58;100396.91;5083058;28;20024;-22
2022/01/21 08:29:46;;;;;;;110.47;55.88;;;;;;;1.84;79.64;100411.16;5092033;28;20152;-21
2022/01/21 08:32:12;;;;;;;162.45;79.00;;;;;;;2.50;78.08;100416.81;5103467;28;20032;-21
2022/01/21 08:34:38;;;;;;;157.20;79.43;;;;;;;3.01;76.49;100425.56;5092471;28;20028;-21
2022/01/21 08:37:04;;;;;;;175.60;87.78;;;;;;;2.87;76.21;100424.34;5089997;28;20040;-22
2022/01/21 08:39:29;;;;;;;182.30;83.63;;;;;;;3.00;75.75;100418.63;5089642;28;20028;-22
2022/01/21 08:45:17;;;;;;;55.90;32.25;;;;;;;2.50;80.15;100412.38;5080314;28;20059;-20
2022/01/21 08:47:43;;;;;;;32.33;19.60;;;;;;;2.52;81.50;100430.66;5077355;28;20032;-22
2022/01/21 08:50:10;;;;;;;31.48;16.00;;;;;;;2.43;81.95;100440.28;5073886;28;20064;-22
2022/01/21 08:52:37;;;;;;;17.35;9.23;;;;;;;2.12;83.98;100421.53;5078122;28;20055;-21
2022/01/21 08:55:07;;;;;;;9.32;4.68;;;;;;;1.76;86.88;100419.00;5084862;28;20442;-21
2022/01/21 08:57:34;;;;;;;9.30;4.05;;;;;;;1.77;87.65;100426.72;5089328;28;20024;-21
2022/01/21 09:00:00;;;;;;;15.95;7.28;;;;;;;1.63;88.95;100416.75;5089202;28;20042;-22
2022/01/21 09:02:25;;;;;;;10.05;4.53;;;;;;;1.66;88.57;100420.91;5089187;28;20020;-22
2022/01/21 09:04:51;;;;;;;6.45;3.10;;;;;;;1.64;89.04;100430.72;5088957;28;20534;-20
2022/01/21 09:07:16;;;;;;;6.63;2.90;;;;;;;1.52;89.75;100432.75;5089378;28;20081;-20
2022/01/21 09:09:42;;;;;;;6.20;2.42;;;;;;;1.46;89.46;100414.97;5089103;28;20036;-21
2022/01/21 09:12:07;;;;;;;6.35;3.00;;;;;;;1.59;89.23;100424.13;5089017;28;20017;-21
2022/01/21 09:14:33;;;;;;;6.30;2.70;;;;;;;1.60;88.39;100417.06;5089070;28;20023;-21
2022/01/21 09:16:59;;;;;;;4.80;2.70;;;;;;;1.61;88.66;100416.06;5087776;28;20036;-20
2022/01/21 09:19:25;;;;;;;5.07;2.22;;;;;;;1.45;89.54;100406.25;5088810;28;20358;-21
2022/01/21 09:21:54;;;;;;;7.72;3.30;;;;;;;1.56;88.83;100402.56;5087139;28;20040;-21
2022/01/21 09:24:20;;;;;;;5.63;2.83;;;;;;;1.56;89.43;100424.41;5087933;28;20050;-21
2022/01/21 09:26:46;;;;;;;6.07;2.25;;;;;;;1.51;89.21;100426.69;5088886;28;20473;-22
2022/01/21 09:29:11;;;;;;;5.18;2.45;;;;;;;1.55;89.57;100428.03;5089043;28;20028;-20
2022/01/21 09:31:37;;;;;;;5.35;2.25;;;;;;;1.37;89.32;100414.91;5088688;28;20028;-21
2022/01/21 09:34:04;;;;;;;3.92;1.85;;;;;;;1.44;89.07;100415.13;5088424;28;20093;-21
2022/01/21 09:36:30;;;;;;;6.07;2.65;;;;;;;1.36;88.50;100399.28;5070686;28;20034;-21
2022/01/21 09:38:55;;;;;;;6.13;2.40;;;;;;;1.34;88.79;100425.69;5088506;28;20043;-22
2022/01/21 09:41:21;;;;;;;3.88;2.15;;;;;;;1.37;88.01;100440.34;5088285;28;20043;-24
2022/01/21 09:43:47;;;;;;;3.45;1.95;;;;;;;1.32;88.70;100439.97;5088226;28;20032;-21
2022/01/21 09:46:13;;;;;;;3.47;1.52;;;;;;;1.32;89.24;100429.44;5087434;28;20032;-21
2022/01/21 09:48:51;;;;;;;3.30;1.77;;;;;;;1.35;89.74;100419.47;5088194;28;20170;-21
2022/01/21 09:51:17;;;;;;;;;;;;;;;1.16;90.03;100416.97;5087572;28;20102;-21
2022/01/21 09:53:42;;;;;;;2.80;1.75;;;;;;;1.12;90.90;100432.19;5088266;28;19998;-21
2022/01/21 09:56:08;;;;;;;3.50;1.65;;;;;;;1.31;90.41;100419.91;5088226;28;20040;-21
2022/01/21 09:58:34;;;;;;;4.60;1.90;;;;;;;1.35;89.98;100416.03;5086156;28;20589;-21
2022/01/21 10:01:02;;;;;;;3.45;1.77;;;;;;;1.28;89.35;100410.53;5086650;28;20036;-20
2022/01/21 10:03:28;;;;;;;6.47;2.85;;;;;;;1.39;90.00;100417.38;5088294;28;20165;-20
2022/01/21 10:05:54;;;;;;;4.18;1.90;;;;;;;1.16;88.81;100391.53;5088037;28;20118;-21
2022/01/21 10:08:23;;;;;;;5.85;2.78;;;;;;;1.34;88.80;100403.84;5087930;28;20031;-22
2022/01/21 10:10:48;;;;;;;5.30;2.60;;;;;;;1.48;87.79;100389.38;5088126;28;20024;-22
2022/01/21 10:13:15;;;;;;;10.30;3.78;;;;;;;1.50;87.68;100382.16;5088033;28;20039;-21
2022/01/21 10:15:40;;;;;;;8.93;4.47;;;;;;;1.47;87.25;100364.88;5087623;28;20039;-21
2022/01/21 10:18:16;;;;;;;7.32;3.00;;;;;;;1.68;87.06;100384.75;5087786;28;20085;-21
2022/01/21 10:21:01;;;;;;;8.43;3.85;;;;;;;1.64;86.53;100388.66;5069557;28;20414;-21
2022/01/21 10:23:28;;;;;;;7.70;3.92;;;;;;;1.67;85.05;100355.00;5087312;28;20126;-21
2022/01/21 10:26:06;;;;;;;8.65;3.85;;;;;;;1.84;83.56;100373.50;5079020;28;20165;-21
2022/01/21 10:28:32;;;;;;;5.75;2.85;;;;;;;1.86;83.31;100353.97;5077391;28;20527;-21
2022/01/21 10:31:05;;;;;;;7.95;2.38;;;;;;;1.98;82.06;100372.94;5081828;28;20040;-21
2022/01/21 10:33:31;;;;;;;7.30;2.88;;;;;;;1.93;80.76;100341.03;5087469;28;20113;-21
2022/01/21 10:36:08;;;;;;;4.53;2.00;;;;;;;2.09;79.38;100363.97;5087175;28;20044;-21
2022/01/21 10:38:44;;;;;;;3.88;2.40;;;;;;;2.14;78.73;100364.31;5085749;28;20081;-21
2022/01/21 10:41:12;;;;;;;5.45;2.70;;;;;;;2.03;78.56;100352.28;5086374;28;20050;-20
2022/01/21 10:43:37;;;;;;;7.05;2.58;;;;;;;2.04;77.53;100342.56;5087438;28;20028;-21
2022/01/21 10:46:03;;;;;;;7.00;2.47;;;;;;;2.04;77.07;100343.38;5085789;28;20043;-21
2022/01/21 10:48:52;;;;;;;15.77;6.63;;;;;;;2.05;77.64;100328.44;5085868;28;20055;-21
2022/01/21 10:51:19;;;;;;;6.28;2.90;;;;;;;2.14;76.77;100332.75;5087246;28;20146;-21
2022/01/21 10:53:45;;;;;;;6.18;2.80;;;;;;;2.07;75.69;100323.84;5082523;28;20039;-20
2022/01/21 10:56:12;;;;;;;10.23;5.43;;;;;;;2.17;76.35;100327.19;5075406;28;20040;-21
2022/01/21 10:58:42;;;;;;;4.75;2.72;;;;;;;2.16;74.66;100325.53;5075984;28;20277;-22
2022/01/21 11:01:12;;;;;;;4.18;2.30;;;;;;;2.21;74.13;100328.53;5076334;28;20081;-22
2022/01/21 11:04:06;;;;;;;10.65;2.80;;;;;;;2.29;74.23;100336.44;5074767;28;20089;-22
2022/01/21 11:06:44;;;;;;;2.83;1.60;;;;;;;2.28;72.32;100331.34;5059615;28;20043;-22
2022/01/21 11:09:20;;;;;;;4.55;2.40;;;;;;;2.42;72.10;100331.53;5065319;28;20510;-20
2022/01/21 11:11:47;;;;;;;9.85;4.72;;;;;;;2.57;70.33;100325.66;5066510;28;20410;-22
2022/01/21 11:14:15;;;;;;;3.20;1.33;;;;;;;2.45;68.69;100338.28;5068381;28;20047;-22
2022/01/21 11:16:43;;;;;;;5.93;2.22;;;;;;;2.19;68.29;100307.63;5072611;28;20025;-21
2022/01/21 11:19:11;;;;;;;;;;;;;;;2.55;68.72;100338.16;5084477;28;20059;-21
2022/01/21 11:21:47;;;;;;;5.20;2.50;;;;;;;2.36;70.71;100326.91;5086940;28;19992;-21
2022/01/21 11:24:14;;;;;;;4.32;1.90;;;;;;;2.28;71.32;100334.78;5069524;28;20582;-21
2022/01/21 11:26:39;;;;;;;3.88;1.90;;;;;;;2.14;71.42;100320.41;5087372;28;20028;-20
2022/01/21 11:29:05;;;;;;;4.75;2.50;;;;;;;2.12;71.94;100309.22;5087193;28;20089;-21
2022/01/21 11:31:31;;;;;;;3.17;1.73;;;;;;;2.03;71.15;100306.72;5087031;28;20032;-21
2022/01/21 11:33:57;;;;;;;3.42;1.90;;;;;;;2.11;71.68;100312.03;5086728;28;20028;-21
2022/01/21 11:36:22;;;;;;;3.50;1.60;;;;;;;2.26;70.31;100315.69;5085415;28;20034;-20
2022/01/21 11:38:53;;;;;;;5.43;2.00;;;;;;;2.09;70.35;100319.25;5086853;28;20101;-21
2022/01/21 11:41:18;;;;;;;3.05;1.42;;;;;;;1.97;69.86;100301.09;5086818;28;20028;-22
2022/01/21 11:43:51;;;;;;;4.35;1.70;;;;;;;2.14;69.95;100316.97;5068462;28;20024;-22
2022/01/21 11:48:50;;;;;;;3.65;1.38;;;;;;;2.18;69.58;100334.09;5085440;28;20028;-21
2022/01/21 11:51:33;;;;;;;3.42;1.70;;;;;;;2.13;68.72;100312.69;5069496;28;20240;-21
2022/01/21 11:54:05;;;;;;;4.25;2.10;;;;;;;2.35;68.65;100321.81;5085305;28;20192;-21
2022/01/21 11:56:46;;;;;;;5.78;3.58;;;;;;;2.44;68.69;100327.94;5086580;28;20024;-21
2022/01/21 11:59:33;;;;;;;4.82;2.00;;;;;;;2.41;67.04;100324.66;5086920;28;20028;-22
2022/01/21 12:01:59;;;;;;;6.10;2.92;;;;;;;2.45;67.52;100314.59;5086648;28;20059;-21
2022/01/21 12:04:30;;;;;;;5.13;3.30;;;;;;;2.43;66.29;100316.56;5086605;28;20024;-22
2022/01/21 12:06:59;;;;;;;8.80;4.15;;;;;;;2.57;66.41;100315.13;5086708;28;20040;-21
2022/01/21 12:09:56;;;;;;;7.53;4.10;;;;;;;2.59;66.30;100310.53;5087124;28;20415;-21
2022/01/21 12:12:26;;;;;;;6.18;2.85;;;;;;;2.66;65.17;100306.28;5090402;28;20039;-21
2022/01/21 12:14:59;;;;;;;12.45;5.60;;;;;;;2.48;65.09;100302.94;5085834;28;20016;-22
2022/01/21 12:18:03;;;;;;;8.45;3.63;;;;;;;2.38;65.42;100303.91;5073739;28;20039;-21
2022/01/21 12:20:32;;;;;;;10.38;4.25;;;;;;;2.32;66.36;100299.28;5069953;28;20031;-21
2022/01/21 12:23:16;;;;;;;6.90;5.03;;;;;;;2.27;67.24;100295.47;5068613;28;20082;-21
2022/01/21 12:26:15;;;;;;;6.13;2.10;;;;;;;2.07;67.76;100300.16;5069834;28;20060;-22
2022/01/21 12:28:43;;;;;;;5.43;2.88;;;;;;;1.78;68.73;100269.78;5069698;28;20384;-20
2022/01/21 12:31:09;;;;;;;6.75;2.85;;;;;;;1.90;67.95;100286.94;5069769;28;20192;-21
2022/01/21 12:36:20;;;;;;;5.88;2.50;;;;;;;1.90;67.84;100299.25;5069747;28;20036;-21
2022/01/21 12:41:17;;;;;;;7.60;4.13;;;;;;;1.97;66.14;100309.00;5069647;28;20642;-21
2022/01/21 12:43:53;;;;;;;25.30;9.65;;;;;;;1.85;66.84;100296.28;5069275;28;20060;-21
2022/01/21 12:46:28;;;;;;;5.47;2.38;;;;;;;1.75;65.83;100280.59;5068391;28;20033;-21
2022/01/21 12:48:54;;;;;;;5.38;2.30;;;;;;;1.85;64.68;100286.56;5069686;28;20021;-21
2022/01/21 12:51:33;;;;;;;5.43;3.13;;;;;;;2.03;64.92;100304.09;5069593;28;20077;-22
2022/01/21 12:56:52;;;;;;;3.60;1.73;;;;;;;2.00;63.60;100295.53;5069400;28;20423;-20
2022/01/21 12:59:22;;;;;;;7.07;3.60;;;;;;;2.09;63.50;100290.31;5068137;28;20029;-22
2022/01/21 13:01:47;;;;;;;3.90;1.75;;;;;;;2.12;62.75;100285.53;5067529;28;20385;-21
2022/01/21 13:04:40;;;;;;;5.60;2.63;;;;;;;2.35;61.87;100296.34;5067599;28;20036;-21
2022/01/21 13:07:18;;;;;;;5.97;2.70;;;;;;;2.37;62.42;100306.69;5069330;28;20056;-21
2022/01/21 13:10:01;;;;;;;4.70;2.25;;;;;;;2.34;61.20;100309.66;5067820;28;20040;-21
2022/01/21 13:12:46;;;;;;;7.32;3.00;;;;;;;2.28;61.62;100308.47;5067939;28;20033;-21
2022/01/21 13:15:11;;;;;;;3.33;1.52;;;;;;;2.38;61.80;100309.16;5068754;28;20392;-22
2022/01/21 13:17:37;;;;;;;4.28;2.35;;;;;;;2.43;61.13;100306.03;5050751;28;20032;-20
2022/01/21 13:20:04;;;;;;;5.00;2.40;;;;;;;2.45;60.56;100295.34;5067217;28;20966;-20
2022/01/21 13:22:32;;;;;;;8.70;3.90;;;;;;;2.45;59.47;100276.94;5068309;28;20573;-21
2022/01/21 13:25:09;;;;;;;5.20;2.67;;;;;;;2.62;59.71;100297.06;5067170;28;20512;-22
2022/01/21 13:27:36;;;;;;;6.45;3.00;;;;;;;2.54;59.44;100297.03;5068682;28;20511;-20
2022/01/21 13:30:09;;;;;;;5.57;2.80;;;;;;;2.51;59.81;100260.50;5068614;28;20033;-21
2022/01/21 13:32:35;;;;;;;6.43;2.78;;;;;;;2.63;58.20;100292.63;5067269;28;20041;-20
2022/01/21 13:35:13;;;;;;;4.82;2.60;;;;;;;2.69;57.86;100300.69;5067380;28;20032;-21
2022/01/21 13:37:39;;;;;;;5.72;2.30;;;;;;;2.62;58.43;100289.16;5068420;28;20021;-21
2022/01/21 13:40:05;;;;;;;4.50;1.90;;;;;;;2.49;58.64;100289.59;5067359;28;20051;-22
2022/01/21 13:42:31;;;;;;;5.03;1.90;;;;;;;2.65;58.52;100288.00;5068342;28;20021;-21
2022/01/21 13:45:01;;;;;;;3.65;1.75;;;;;;;2.42;58.60;100268.38;5068478;28;20055;-21
2022/01/21 13:47:33;;;;;;;7.57;3.40;;;;;;;2.64;59.17;100289.81;5068145;28;20036;-21
2022/01/21 13:50:17;;;;;;;6.13;2.45;;;;;;;2.66;58.79;100290.50;5068101;28;20024;-21
2022/01/21 13:52:47;;;;;;;4.90;2.05;;;;;;;2.65;58.89;100288.81;5068479;28;20410;-21
2022/01/21 13:55:32;;;;;;;6.40;3.15;;;;;;;2.70;58.99;100294.44;5068460;28;20115;-20
2022/01/21 13:57:59;;;;;;;5.13;2.47;;;;;;;2.70;58.71;100286.53;5068000;28;20025;-21
2022/01/21 14:00:30;;;;;;;5.45;2.55;;;;;;;2.65;58.59;100293.28;5066771;28;20056;-20
2022/01/21 14:03:11;;;;;;;5.70;2.38;;;;;;;2.55;58.88;100290.78;5066542;28;20062;-20
2022/01/21 14:05:57;;;;;;;7.65;3.50;;;;;;;2.73;59.04;100280.94;5068024;28;20028;-20
2022/01/21 14:08:28;;;;;;;4.20;2.28;;;;;;;2.71;58.23;100301.34;5068037;28;20036;-21
2022/01/21 14:11:03;;;;;;;6.00;2.10;;;;;;;2.58;57.86;100275.50;5066119;28;20493;-21
2022/01/21 14:13:29;;;;;;;4.93;2.58;;;;;;;2.62;57.60;100289.16;5068193;28;20035;-21
2022/01/21 14:15:56;;;;;;;5.18;2.47;;;;;;;2.52;57.14;100285.84;5049714;28;20029;-21
2022/01/21 14:18:22;;;;;;;5.18;1.92;;;;;;;2.58;57.65;100308.91;5049985;28;20039;-21
2022/01/21 14:20:47;;;;;;;6.88;2.53;;;;;;;2.55;58.19;100302.13;5066347;28;20033;-20
2022/01/21 14:23:14;;;;;;;5.38;2.45;;;;;;;2.53;58.67;100298.00;5066026;28;20036;-21
2022/01/21 14:25:50;;;;;;;7.55;2.42;;;;;;;2.53;58.56;100308.53;5067724;28;20143;-21
2022/01/21 14:28:16;;;;;;;5.47;2.22;;;;;;;2.55;58.51;100309.22;5067705;28;20396;-20
2022/01/21 14:30:41;;;;;;;4.10;2.15;;;;;;;2.53;58.89;100303.28;5067902;28;20066;-21
2022/01/21 14:33:08;;;;;;;3.67;1.55;;;;;;;2.54;58.21;100313.66;5067168;28;20609;-21
2022/01/21 14:35:40;;;;;;;4.28;2.08;;;;;;;2.45;58.31;100298.81;5067425;28;20115;-20
2022/01/21 14:38:08;;;;;;;2.58;1.17;;;;;;;2.58;58.22;100304.44;5067048;28;20028;-21
2022/01/21 14:40:43;;;;;;;5.57;2.10;;;;;;;2.67;57.86;100302.66;5067716;28;20032;-20
2022/01/21 14:43:10;;;;;;;5.97;2.28;;;;;;;2.66;58.72;100301.03;5067519;28;20039;-21
2022/01/21 14:45:36;;;;;;;5.57;2.53;;;;;;;2.58;58.68;100303.63;5067028;28;20060;-20
2022/01/21 14:48:19;;;;;;;8.43;4.30;;;;;;;2.40;58.97;100290.59;5066700;28;20444;-20
2022/01/21 14:50:45;;;;;;;27.70;12.55;;;;;;;2.57;58.59;100315.94;5067462;28;20094;-21
2022/01/21 14:53:11;;;;;;;12.43;5.93;;;;;;;2.40;58.37;100290.59;5067428;28;20029;-21
2022/01/21 14:55:38;;;;;;;12.38;4.97;;;;;;;2.51;57.17;100313.16;5067198;28;20040;-21
2022/01/21 14:58:20;;;;;;;17.63;7.45;;;;;;;2.40;56.28;100311.63;5066993;28;20078;-20
2022/01/21 15:01:01;;;;;;;12.80;5.80;;;;;;;2.50;54.95;100317.59;5067168;28;20032;-21
2022/01/21 15:03:28;;;;;;;11.23;5.72;;;;;;;2.38;55.39;100298.63;5065885;28;20028;-21
2022/01/21 15:06:18;;;;;;;9.68;4.20;;;;;;;2.57;56.16;100317.78;5066945;28;20039;-22
2022/01/21 15:08:53;;;;;;;20.38;8.85;;;;;;;2.46;55.31;100320.72;5066975;28;20533;-21
2022/01/21 15:16:34;;;;;;;6.72;4.07;;;;;;;2.51;55.76;100313.97;5065696;28;20127;-21
2022/01/21 15:18:59;;;;;;;26.13;10.07;;;;;;;2.52;56.17;100314.81;5067297;28;20107;-21
2022/01/21 15:21:29;;;;;;;8.70;4.72;;;;;;;2.58;56.74;100329.97;5066797;28;20162;-21
2022/01/21 15:23:55;;;;;;;8.65;4.80;;;;;;;2.44;55.90;100306.88;5066290;28;20033;-21
2022/01/21 15:26:22;;;;;;;15.70;9.10;;;;;;;2.29;57.01;100304.88;5067275;28;20020;-21
2022/01/21 15:28:49;;;;;;;8.48;4.75;;;;;;;2.47;56.84;100317.09;5067045;28;20032;-21
2022/01/21 15:31:15;;;;;;;14.25;8.77;;;;;;;2.39;56.36;100295.03;5066851;28;20177;-22
2022/01/21 15:33:40;;;;;;;16.15;9.25;;;;;;;2.49;56.34;100318.56;5066870;28;20029;-21
2022/01/21 15:36:06;;;;;;;7.65;4.53;;;;;;;2.54;56.86;100315.47;5066552;28;20388;-21
2022/01/21 15:38:33;;;;;;;7.90;4.90;;;;;;;2.39;57.76;100317.88;5066606;28;20136;-21
2022/01/21 15:40:58;;;;;;;7.70;3.33;;;;;;;2.29;58.06;100307.50;5066990;28;20052;-21
2022/01/21 15:43:24;;;;;;;8.55;4.38;;;;;;;2.19;58.81;100319.97;5066936;28;20106;-21
2022/01/21 15:45:49;;;;;;;7.15;3.58;;;;;;;2.00;58.41;100311.31;5070585;28;20090;-21
2022/01/21 15:48:15;;;;;;;7.32;4.00;;;;;;;2.10;58.88;100318.25;5070765;28;20032;-21
2022/01/21 15:50:41;;;;;;;7.30;4.10;;;;;;;2.05;59.20;100308.22;5070774;28;20056;-21
2022/01/21 15:53:08;;;;;;;10.02;3.97;;;;;;;1.91;59.23;100299.09;5070472;28;20028;-21
2022/01/21 15:55:34;;;;;;;10.23;5.65;;;;;;;1.94;59.85;100306.69;5070829;28;20031;-21
2022/01/21 15:57:59;;;;;;;9.13;5.05;;;;;;;1.78;60.20;100319.75;5070294;28;20036;-20
2022/01/21 16:00:25;;;;;;;9.35;5.40;;;;;;;1.80;59.93;100312.53;5070426;28;20028;-21
2022/01/21 16:02:50;;;;;;;10.35;5.45;;;;;;;1.70;60.07;100298.66;5070530;28;20052;-21
2022/01/21 16:05:17;;;;;;;11.50;5.57;;;;;;;1.55;60.21;100285.25;5070331;28;20082;-20
2022/01/21 16:07:42;;;;;;;9.77;4.45;;;;;;;1.65;60.05;100316.69;5070198;28;20066;-20
2022/01/21 16:10:08;;;;;;;10.55;4.78;;;;;;;1.69;60.33;100321.47;5068989;28;20086;-21
2022/01/21 16:12:33;;;;;;;9.20;5.05;;;;;;;1.79;59.92;100316.13;5070376;28;20040;-21
2022/01/21 16:14:59;;;;;;;6.90;4.05;;;;;;;1.81;59.49;100309.72;5070263;28;20490;-21
2022/01/21 16:17:25;;;;;;;8.77;4.22;;;;;;;1.82;60.17;100328.97;5069917;28;20047;-22
2022/01/21 16:19:52;;;;;;;10.27;5.63;;;;;;;1.83;60.43;100325.34;5080915;28;20036;-21
2022/01/21 16:22:17;;;;;;;10.63;5.20;;;;;;;1.76;60.58;100333.03;5080448;28;20032;-20
2022/01/21 16:24:43;;;;;;;8.25;4.28;;;;;;;1.72;59.71;100331.72;5075056;28;20117;-21
2022/01/21 16:27:08;;;;;;;11.15;5.93;;;;;;;1.71;60.11;100339.75;5079575;28;20039;-21
2022/01/21 16:29:34;;;;;;;9.40;4.85;;;;;;;1.75;60.62;100333.19;5079030;28;20511;-21
2022/01/21 16:32:00;;;;;;;7.78;4.57;;;;;;;1.76;60.10;100332.22;5079715;28;20028;-23
2022/01/21 16:34:28;;;;;;;10.02;5.32;;;;;;;1.68;60.29;100321.66;5078482;28;20028;-21
2022/01/21 16:36:54;;;;;;;7.60;3.30;;;;;;;1.72;59.94;100338.78;5077414;28;20495;-21